UAL2644 KIND-KDEN
Flight info
| Callsign | UAL2644 |
|---|---|
| Flight time | N/A |
| Altitude | 34000 |
| Route | ROCKY1 SPI J80 MCI J24 OATHE CLASH5 |
| Aircraft | B738/M-SDE2E3FGHIRWXY/LB1 |
Departure
| Time | 2026-05-07 12:28 |
|---|---|
| Airport | Indianapolis International Airport (KIND) |
Arrival
| Time | N/A |
|---|---|
| Airport | Denver International Airport (KDEN) |
| Time | Latitude | Longitude | Altitude | Speed | Heading |
|---|---|---|---|---|---|
| 2026-05-07 12:13 | 39.71756 | -86.29805 | 788 ft | 0 kts | 129° |
| 2026-05-07 12:21 | 39.71763 | -86.29817 | 788 ft | 4 kts | 131° |
| 2026-05-07 12:21 | 39.71781 | -86.29843 | 788 ft | 4 kts | 128° |
| 2026-05-07 12:21 | 39.71797 | -86.29871 | 788 ft | 4 kts | 123° |
| 2026-05-07 12:21 | 39.71810 | -86.29901 | 787 ft | 4 kts | 113° |
| 2026-05-07 12:22 | 39.71817 | -86.29933 | 787 ft | 4 kts | 79° |
| 2026-05-07 12:22 | 39.71811 | -86.29951 | 787 ft | 1 kts | 39° |
| 2026-05-07 12:22 | 39.71809 | -86.29953 | 787 ft | 1 kts | 39° |
| 2026-05-07 12:24 | 39.71820 | -86.29947 | 787 ft | 3 kts | 15° |
| 2026-05-07 12:24 | 39.71857 | -86.29960 | 787 ft | 9 kts | 327° |
| 2026-05-07 12:25 | 39.71931 | -86.30044 | 784 ft | 19 kts | 317° |
| 2026-05-07 12:25 | 39.72053 | -86.29986 | 786 ft | 24 kts | 45° |
| 2026-05-07 12:25 | 39.72174 | -86.29830 | 786 ft | 25 kts | 44° |
| 2026-05-07 12:25 | 39.72294 | -86.29677 | 782 ft | 25 kts | 45° |
| 2026-05-07 12:26 | 39.72419 | -86.29517 | 781 ft | 24 kts | 44° |
| 2026-05-07 12:26 | 39.72544 | -86.29359 | 782 ft | 22 kts | 44° |
| 2026-05-07 12:26 | 39.72655 | -86.29250 | 782 ft | 18 kts | 353° |
| 2026-05-07 12:26 | 39.72737 | -86.29369 | 781 ft | 19 kts | 282° |
| 2026-05-07 12:27 | 39.72716 | -86.29429 | 781 ft | 3 kts | 224° |
| 2026-05-07 12:27 | 39.72694 | -86.29456 | 781 ft | 21 kts | 224° |
| 2026-05-07 12:27 | 39.72405 | -86.29820 | 781 ft | 93 kts | 225° |
| 2026-05-07 12:27 | 39.71800 | -86.30599 | 790 ft | 150 kts | 225° |
| 2026-05-07 12:28 | 39.70961 | -86.31650 | 1066 ft | 178 kts | 224° |
| 2026-05-07 12:28 | 39.70019 | -86.32797 | 1663 ft | 194 kts | 225° |
| 2026-05-07 12:28 | 39.69002 | -86.34031 | 2284 ft | 203 kts | 225° |
| 2026-05-07 12:28 | 39.67951 | -86.35275 | 2892 ft | 206 kts | 225° |
| 2026-05-07 12:29 | 39.66873 | -86.36529 | 3474 ft | 211 kts | 226° |
| 2026-05-07 12:29 | 39.66050 | -86.38177 | 3680 ft | 231 kts | 258° |
| 2026-05-07 12:29 | 39.65703 | -86.40303 | 4179 ft | 247 kts | 261° |
| 2026-05-07 12:29 | 39.65336 | -86.42512 | 4983 ft | 252 kts | 260° |
| 2026-05-07 12:30 | 39.64944 | -86.44747 | 5832 ft | 256 kts | 260° |
| 2026-05-07 12:30 | 39.64533 | -86.47011 | 6642 ft | 260 kts | 259° |
| 2026-05-07 12:30 | 39.64106 | -86.49300 | 7485 ft | 260 kts | 259° |
| 2026-05-07 12:30 | 39.63671 | -86.51581 | 8372 ft | 260 kts | 258° |
| 2026-05-07 12:31 | 39.63231 | -86.53862 | 9241 ft | 261 kts | 257° |
| 2026-05-07 12:31 | 39.62784 | -86.56150 | 10100 ft | 262 kts | 257° |
| 2026-05-07 12:31 | 39.62324 | -86.58498 | 10535 ft | 279 kts | 257° |
| 2026-05-07 12:31 | 39.61823 | -86.61038 | 10716 ft | 302 kts | 257° |
| 2026-05-07 12:32 | 39.61281 | -86.63772 | 10894 ft | 324 kts | 257° |
| 2026-05-07 12:32 | 39.60703 | -86.66672 | 11214 ft | 338 kts | 257° |
| 2026-05-07 12:32 | 39.60107 | -86.69649 | 11876 ft | 342 kts | 257° |
| 2026-05-07 12:32 | 39.59508 | -86.72629 | 12697 ft | 342 kts | 257° |
| 2026-05-07 12:33 | 39.58312 | -86.78571 | 14257 ft | 345 kts | 257° |
| 2026-05-07 12:33 | 39.57706 | -86.81577 | 15038 ft | 345 kts | 257° |
| 2026-05-07 12:33 | 39.57101 | -86.84576 | 15861 ft | 344 kts | 257° |
| 2026-05-07 12:34 | 39.56495 | -86.87575 | 16645 ft | 344 kts | 257° |
| 2026-05-07 12:34 | 39.55886 | -86.90586 | 17403 ft | 345 kts | 257° |
| 2026-05-07 12:34 | 39.55276 | -86.93601 | 18154 ft | 347 kts | 257° |
| 2026-05-07 12:34 | 39.54660 | -86.96635 | 18756 ft | 351 kts | 257° |
| 2026-05-07 12:35 | 39.54036 | -86.99711 | 19257 ft | 354 kts | 257° |
| 2026-05-07 12:35 | 39.53431 | -87.02688 | 20095 ft | 348 kts | 256° |
| 2026-05-07 12:35 | 39.52816 | -87.05707 | 20797 ft | 347 kts | 256° |
| 2026-05-07 12:35 | 39.52197 | -87.08743 | 21345 ft | 350 kts | 256° |
| 2026-05-07 12:36 | 39.51575 | -87.11796 | 21883 ft | 352 kts | 256° |
| 2026-05-07 12:36 | 39.50948 | -87.14867 | 22445 ft | 353 kts | 256° |
| 2026-05-07 12:36 | 39.50316 | -87.17952 | 23016 ft | 355 kts | 256° |
| 2026-05-07 12:36 | 39.49683 | -87.21040 | 23570 ft | 356 kts | 256° |
| 2026-05-07 12:37 | 39.49252 | -87.24204 | 24001 ft | 358 kts | 263° |
| 2026-05-07 12:37 | 39.49098 | -87.27432 | 24393 ft | 362 kts | 268° |
| 2026-05-07 12:37 | 39.49247 | -87.30711 | 24778 ft | 365 kts | 271° |
| 2026-05-07 12:37 | 39.49474 | -87.34000 | 25139 ft | 369 kts | 272° |
| 2026-05-07 12:38 | 39.49707 | -87.37338 | 25314 ft | 376 kts | 272° |
| 2026-05-07 12:38 | 39.49945 | -87.40726 | 25689 ft | 378 kts | 272° |
| 2026-05-07 12:38 | 39.50181 | -87.44110 | 26119 ft | 378 kts | 272° |
| 2026-05-07 12:38 | 39.50416 | -87.47513 | 26481 ft | 380 kts | 272° |
| 2026-05-07 12:39 | 39.50648 | -87.50926 | 26808 ft | 382 kts | 272° |
| 2026-05-07 12:39 | 39.50880 | -87.54370 | 27118 ft | 385 kts | 272° |
| 2026-05-07 12:39 | 39.51108 | -87.57785 | 27447 ft | 387 kts | 272° |
| 2026-05-07 12:39 | 39.51339 | -87.61265 | 27789 ft | 388 kts | 272° |
| 2026-05-07 12:40 | 39.51570 | -87.64747 | 28217 ft | 387 kts | 272° |
| 2026-05-07 12:40 | 39.51799 | -87.68213 | 28727 ft | 385 kts | 272° |
| 2026-05-07 12:40 | 39.52025 | -87.71657 | 29241 ft | 383 kts | 273° |
| 2026-05-07 12:40 | 39.52252 | -87.75116 | 29454 ft | 388 kts | 273° |
| 2026-05-07 12:41 | 39.52478 | -87.78617 | 29757 ft | 390 kts | 273° |
| 2026-05-07 12:41 | 39.52703 | -87.82103 | 30275 ft | 387 kts | 272° |
| 2026-05-07 12:41 | 39.52926 | -87.85553 | 30823 ft | 381 kts | 272° |
| 2026-05-07 12:41 | 39.53144 | -87.88948 | 31404 ft | 375 kts | 272° |
| 2026-05-07 12:42 | 39.53358 | -87.92294 | 31943 ft | 370 kts | 271° |
| 2026-05-07 12:42 | 39.53568 | -87.95594 | 32465 ft | 365 kts | 271° |
| 2026-05-07 12:42 | 39.53775 | -87.98861 | 32912 ft | 362 kts | 271° |
| 2026-05-07 12:42 | 39.53974 | -88.02032 | 33273 ft | 361 kts | 270° |
| 2026-05-07 12:43 | 39.54176 | -88.05276 | 33526 ft | 363 kts | 270° |
| 2026-05-07 12:43 | 39.54375 | -88.08498 | 33769 ft | 364 kts | 270° |
| 2026-05-07 12:43 | 39.54580 | -88.11814 | 33971 ft | 366 kts | 270° |
| 2026-05-07 12:43 | 39.54780 | -88.15073 | 34074 ft | 367 kts | 270° |
| 2026-05-07 12:44 | 39.55185 | -88.21657 | 34091 ft | 366 kts | 270° |
| 2026-05-07 12:44 | 39.55586 | -88.28245 | 34093 ft | 366 kts | 270° |
| 2026-05-07 12:45 | 39.55982 | -88.34822 | 34092 ft | 366 kts | 270° |
| 2026-05-07 12:45 | 39.56374 | -88.41403 | 34093 ft | 366 kts | 270° |
| 2026-05-07 12:46 | 39.56763 | -88.47988 | 34090 ft | 367 kts | 270° |
| 2026-05-07 12:46 | 39.57149 | -88.54579 | 34123 ft | 369 kts | 271° |
| 2026-05-07 12:47 | 39.57533 | -88.61211 | 34093 ft | 373 kts | 271° |
| 2026-05-07 12:47 | 39.57920 | -88.67929 | 34089 ft | 375 kts | 271° |
| 2026-05-07 12:48 | 39.58305 | -88.74678 | 34093 ft | 376 kts | 271° |
| 2026-05-07 12:48 | 39.58756 | -88.81442 | 34085 ft | 378 kts | 275° |
| 2026-05-07 12:49 | 39.60162 | -88.88044 | 34090 ft | 384 kts | 285° |
| 2026-05-07 12:49 | 39.62134 | -88.94503 | 34096 ft | 384 kts | 285° |
| 2026-05-07 12:50 | 39.64072 | -89.00880 | 34093 ft | 384 kts | 285° |
| 2026-05-07 12:50 | 39.66009 | -89.07296 | 34103 ft | 384 kts | 285° |
| 2026-05-07 12:51 | 39.67946 | -89.13745 | 34104 ft | 383 kts | 285° |
| 2026-05-07 12:51 | 39.69876 | -89.20188 | 34101 ft | 382 kts | 285° |
| 2026-05-07 12:52 | 39.71798 | -89.26622 | 34112 ft | 382 kts | 285° |
| 2026-05-07 12:52 | 39.73715 | -89.33051 | 34105 ft | 381 kts | 285° |
| 2026-05-07 12:53 | 39.75627 | -89.39479 | 34103 ft | 381 kts | 285° |
| 2026-05-07 12:53 | 39.77532 | -89.45898 | 34096 ft | 380 kts | 285° |
| 2026-05-07 12:54 | 39.79425 | -89.52289 | 34090 ft | 380 kts | 285° |
| 2026-05-07 12:54 | 39.81321 | -89.58708 | 34124 ft | 380 kts | 285° |
| 2026-05-07 12:55 | 39.82982 | -89.65202 | 34090 ft | 375 kts | 277° |
| 2026-05-07 12:55 | 39.83537 | -89.71914 | 34084 ft | 372 kts | 269° |
| 2026-05-07 12:56 | 39.83087 | -89.78608 | 34101 ft | 371 kts | 263° |
| 2026-05-07 12:56 | 39.82468 | -89.85280 | 34105 ft | 371 kts | 263° |
| 2026-05-07 12:57 | 39.81855 | -89.91951 | 34103 ft | 371 kts | 263° |
| 2026-05-07 12:57 | 39.81352 | -89.97504 | 34100 ft | 372 kts | 263° |
| 2026-05-07 12:58 | 39.80754 | -90.04107 | 34094 ft | 372 kts | 263° |
| 2026-05-07 12:58 | 39.80146 | -90.10803 | 34094 ft | 372 kts | 263° |
| 2026-05-07 12:59 | 39.79535 | -90.17503 | 34103 ft | 374 kts | 263° |
| 2026-05-07 12:59 | 39.78918 | -90.24226 | 34104 ft | 375 kts | 263° |
| 2026-05-07 13:00 | 39.78294 | -90.30965 | 34103 ft | 376 kts | 263° |
| 2026-05-07 13:00 | 39.77666 | -90.37720 | 34101 ft | 376 kts | 263° |
| 2026-05-07 13:01 | 39.77034 | -90.44477 | 34097 ft | 377 kts | 263° |
| 2026-05-07 13:01 | 39.76395 | -90.51258 | 34095 ft | 378 kts | 263° |
| 2026-05-07 13:02 | 39.75752 | -90.58030 | 34106 ft | 378 kts | 263° |
| 2026-05-07 13:02 | 39.75109 | -90.64776 | 34115 ft | 378 kts | 263° |
| 2026-05-07 13:03 | 39.74458 | -90.71555 | 34116 ft | 377 kts | 263° |
| 2026-05-07 13:03 | 39.73803 | -90.78335 | 34111 ft | 378 kts | 263° |
| 2026-05-07 13:04 | 39.73147 | -90.85098 | 34126 ft | 378 kts | 263° |
| 2026-05-07 13:04 | 39.72489 | -90.91831 | 34117 ft | 378 kts | 263° |
| 2026-05-07 13:05 | 39.72157 | -90.95219 | 34303 ft | 378 kts | 263° |
| 2026-05-07 13:05 | 39.71825 | -90.98609 | 34309 ft | 378 kts | 263° |
| 2026-05-07 13:05 | 39.71162 | -91.05314 | 34309 ft | 379 kts | 263° |
| 2026-05-07 13:06 | 39.70484 | -91.12095 | 34310 ft | 379 kts | 263° |
| 2026-05-07 13:06 | 39.69794 | -91.18886 | 34309 ft | 379 kts | 264° |
| 2026-05-07 13:07 | 39.69103 | -91.25679 | 34276 ft | 379 kts | 264° |
| 2026-05-07 13:07 | 39.68757 | -91.29075 | 34112 ft | 379 kts | 264° |
| 2026-05-07 13:07 | 39.68410 | -91.32474 | 34110 ft | 380 kts | 263° |
| 2026-05-07 13:08 | 39.67715 | -91.39272 | 34113 ft | 380 kts | 263° |
| 2026-05-07 13:08 | 39.67010 | -91.46083 | 34107 ft | 381 kts | 263° |
| 2026-05-07 13:09 | 39.66303 | -91.52890 | 34094 ft | 381 kts | 264° |
| 2026-05-07 13:09 | 39.65599 | -91.59665 | 34102 ft | 381 kts | 264° |
| 2026-05-07 13:10 | 39.64888 | -91.66483 | 34103 ft | 382 kts | 264° |
| 2026-05-07 13:10 | 39.64173 | -91.73310 | 34099 ft | 382 kts | 264° |
| 2026-05-07 13:11 | 39.63453 | -91.80142 | 34094 ft | 382 kts | 264° |
| 2026-05-07 13:11 | 39.62729 | -91.86976 | 34089 ft | 383 kts | 264° |
| 2026-05-07 13:12 | 39.61999 | -91.93818 | 34079 ft | 383 kts | 264° |
| 2026-05-07 13:12 | 39.61274 | -92.00588 | 34091 ft | 383 kts | 264° |
| 2026-05-07 13:13 | 39.60536 | -92.07437 | 34092 ft | 384 kts | 264° |
| 2026-05-07 13:13 | 39.59793 | -92.14297 | 34095 ft | 384 kts | 264° |
| 2026-05-07 13:14 | 39.59045 | -92.21155 | 34098 ft | 384 kts | 264° |
| 2026-05-07 13:14 | 39.58292 | -92.28022 | 34099 ft | 384 kts | 264° |
| 2026-05-07 13:15 | 39.57536 | -92.34882 | 34094 ft | 384 kts | 264° |
| 2026-05-07 13:15 | 39.56776 | -92.41744 | 34102 ft | 384 kts | 264° |
| 2026-05-07 13:16 | 39.56011 | -92.48609 | 34103 ft | 385 kts | 264° |
| 2026-05-07 13:16 | 39.55241 | -92.55477 | 34097 ft | 385 kts | 264° |
| 2026-05-07 13:17 | 39.54468 | -92.62340 | 34091 ft | 385 kts | 264° |
| 2026-05-07 13:17 | 39.53695 | -92.69164 | 34075 ft | 385 kts | 264° |
| 2026-05-07 13:18 | 39.52915 | -92.76024 | 34095 ft | 386 kts | 264° |
| 2026-05-07 13:18 | 39.52128 | -92.82894 | 34099 ft | 386 kts | 264° |
| 2026-05-07 13:19 | 39.51335 | -92.89789 | 34099 ft | 387 kts | 264° |
| 2026-05-07 13:19 | 39.50538 | -92.96681 | 34100 ft | 387 kts | 264° |
| 2026-05-07 13:20 | 39.49746 | -93.03497 | 34099 ft | 388 kts | 264° |
| 2026-05-07 13:20 | 39.48938 | -93.10413 | 34095 ft | 388 kts | 265° |
| 2026-05-07 13:21 | 39.48128 | -93.17318 | 34107 ft | 388 kts | 265° |
| 2026-05-07 13:21 | 39.47314 | -93.24230 | 34101 ft | 389 kts | 265° |
| 2026-05-07 13:22 | 39.46495 | -93.31108 | 34100 ft | 389 kts | 264° |
| 2026-05-07 13:22 | 39.45658 | -93.38030 | 34100 ft | 389 kts | 264° |